Lynradar: storm image Ingen tordenbyger registrert..



Vårt webkamera mer informasjon My webcam


Kamera på Foreneset mer informasjon webcam on foreneset


Lynradar mer informasjon blitzortung!


Nedbørsradar mer informasjon rain snow radar


Besøk vår andre værside:

Alternativ webside

iphone versjon

Mobil versjon

Foreneset
verstasjon



Ikke nødvendig med spesiell oppmerksomhet.    Det er ingen advarsler

Nære METAR rapporter

  
ENHD - Haugesund/Karmoy, Norway
Avstand fra stasjon: V 50km
oppdatert: 20-08-2017 16:50
For det meste skyet
For det meste skyet  
 Wind from NV
Vind: NV 24 km/h
Temperatur:  16°C
Duggpunkt:  11°C
Fuktighet:  72%
Barometer:  1011 hPa
Skyer:  For det meste skyet
Sikt:  10 km
Skydetaljer:  Få Skyer 457 m
For det meste skyet 518 m
2017/08/20 14:50 ENHD 201450Z 31013KT 9999 FEW015TCU BKN017 16/11 Q1011
ENZV - Stavanger/Sola(A, Norway
Avstand fra stasjon: SSV 58km
oppdatert: 20-08-2017 16:50
Delvis Skyet
Delvis Skyet  
 Wind from VNV
Vind: VNV 35 km/h
Temperatur:  15°C
Duggpunkt:  11°C
Fuktighet:  77%
Barometer:  1011 hPa
Skyer:  Delvis Skyet
Sikt:  10 km
Skydetaljer:  Delvis Skyet 549 m
Delvis Skyet 1524 m
2017/08/20 14:50 ENZV 201450Z 30019KT 9999 SCT018TCU SCT050 15/11 Q1011 NOSIG
ENBR - Bergen/Flesland, Norway
Avstand fra stasjon: NNV 118km
oppdatert: 20-08-2017 16:50
For det meste skyet
For det meste skyet  
 Wind from NV
Vind: NV 15 km/h
Temperatur:  15°C
Duggpunkt:  11°C
Fuktighet:  77%
Barometer:  1010 hPa
Skyer:  For det meste skyet
Sikt:  10 km
Skydetaljer:  Få Skyer 518 m
Delvis Skyet 671 m
For det meste skyet 1524 m
2017/08/20 14:50 ENBR 201450Z 31008KT 9999 FEW017 SCT022 BKN050 15/11 Q1010 NOSIG RMK WIND 1200FT 30011KT
ENCN - Kristiansand/Kje, Norway
Avstand fra stasjon: SØ 169km
oppdatert: 20-08-2017 16:50
Få Skyer
Få Skyer  
 Wind from V
Vind: V 20 km/h
Temperatur:  16°C
Duggpunkt:  11°C
Fuktighet:  72%
Barometer:  1009 hPa
Skyer:  Få Skyer
Sikt:  10 km
Skydetaljer:  Få Skyer 732 m
Få Skyer 762 m
2017/08/20 14:50 ENCN 201450Z 26011KT 9999 FEW024 FEW025CB 16/11 Q1009
ENQA - Troll-A Heli, Norway
Avstand fra stasjon: NV 198km
oppdatert: 20-08-2017 16:50
Overskyet
Overskyet  
 Wind from NNV
Vind: NNV 46 km/h
Temperatur:  13°C
Duggpunkt:  12°C
Fuktighet:  94%
Barometer:  1012 hPa
Skyer:  Overskyet
Sikt:  16 miles
Skydetaljer:  For det meste skyet 640 m
Overskyet 1463 m
2017/08/20 14:50 ENQA 201450Z AUTO 33025KT 9999NDV BKN021/// OVC048/// 13/12 Q1012 W12/S4
ENOA - Oseberg, Norway
Avstand fra stasjon: NV 224km
oppdatert: 20-08-2017 16:50
Lett regn, Byger, For det meste skyet
Lett regn, Byger, For det meste skyet  
 Wind from NNV
Vind: NNV 43 km/h
Temperatur:  13°C
Duggpunkt:  12°C
Fuktighet:  94%
Barometer:  1012 hPa
Summering:  Lett regn, Byger
Skyer:  For det meste skyet
Sikt:  9 km
Skydetaljer:  Delvis Skyet 244 m
For det meste skyet 914 m
2017/08/20 14:50 ENOA 201450Z 34023KT 9000 -SHRA SCT008 BKN030 13/12 Q1012 W///S5
ENFG - Fagernes/Leirin, Norway
Avstand fra stasjon: NØ 257km
oppdatert: 18-08-2017 06:50
Ikke oppdatert
Lett yr, For det meste skyet
Lett yr, For det meste skyet  
 Wind from varierer
Vind: varierer 4 km/h
Temperatur:  9°C
Duggpunkt:  9°C
Fuktighet:  100%
Barometer:  1007 hPa
Summering:  Lett yr
Skyer:  For det meste skyet
Sikt:  8 km
Skydetaljer:  Få Skyer 61 m
For det meste skyet 213 m
2017/08/18 04:50 ENFG 180450Z VRB02KT 8000 -DZ FEW002 BKN007 09/09 Q1007
ENSL - Sleipner A Platf, Norway
Avstand fra stasjon: VSV 264km
oppdatert: 20-08-2017 16:50
For det meste skyet
For det meste skyet  
 Wind from NV
Vind: NV 59 km/h
Temperatur:  14°C
Duggpunkt:  11°C
Fuktighet:  82%
Barometer:  1016 hPa
Skyer:  For det meste skyet
Sikt:  10 km
Skydetaljer:  For det meste skyet 427 m
2017/08/20 14:50 ENSL 201450Z 32032KT 9999 BKN014 14/11 Q1016 W14/S4
ENGC - Gullfax (platfor, Norway
Avstand fra stasjon: NV 294km
oppdatert: 20-08-2017 16:50
For det meste skyet
For det meste skyet  
 Wind from N
Vind: N 46 km/h
Temperatur:  13°C
Duggpunkt:  12°C
Fuktighet:  94%
Barometer:  1012 hPa
Skyer:  For det meste skyet
Sikt:  10 km
Skydetaljer:  For det meste skyet 183 m
2017/08/20 14:50 ENGC 201450Z 35025KT 9999 BKN006 13/12 Q1012 W12/S4
ENGM - Oslo/Gardermoen, Norway
Avstand fra stasjon: ØNØ 294km
oppdatert: 20-08-2017 16:50
For det meste skyet
For det meste skyet  
 Wind from S
Vind: S 11 km/h
Temperatur:  17°C
Duggpunkt:  8°C
Fuktighet:  56%
Barometer:  1007 hPa
Skyer:  For det meste skyet
Sikt:  10 km
Skydetaljer:  Få Skyer 1402 m
For det meste skyet 2316 m
2017/08/20 14:50 ENGM 201450Z 17006KT 140V210 9999 FEW046 BKN076 17/08 Q1007 NOSIG

Script utviklet av  Saratoga-weather.org Tilrettelagt for malen av  Weerstation Leuven

Du finner vår vær info også på:


UK Metoffice

European Weather Network

WeatherCloud

Weather Underground

Utstyr vi bruker:


Værstsjon
Davis VP2

Værprogram
Weather Display

Davis VP2

Weather Display